Tubul — A8VP8 — position and weather

sailwx.info

Track history (hours):
 
Tides and Currents Weather Stations Pressure Air Temp Water Temp Dewpoint Dewpoint Depression Visibility Wind Speed Wind Dir Waves Ship Positions

Tubul

Last reported at 2015-Jun-26 19:33 UTC. Time now 2015-Jun-30 12:42 UTC.
Position N 01°16' E 104°14'.

Length 300 m; draft 12.1 m.

Type: Ship. MMSI: 636014647.

Date/timePositionNaut miles runAvg speedWind from/ knotsBaromVisibWave heightAir tempDewpointWater temp
2015-Jun-26 19:33N 01°16' E 104°14'1414.2
2015-Jun-26 18:33N 01°14' E 103°60'1111.4
2015-Jun-26 17:33N 01°12' E 103°48'5 5.2
2015-Jun-26 16:33N 01°17' E 103°45'0 0.0
2015-Jun-26 15:33N 01°17' E 103°45'0 0.0
2015-Jun-26 14:30N 01°17' E 103°45'0 0.0
2015-Jun-26 13:30N 01°17' E 103°45'0 0.0
2015-Jun-26 12:33N 01°17' E 103°45'0 0.0
2015-Jun-26 11:24N 01°17' E 103°45'0 0.0
2015-Jun-26 10:33N 01°17' E 103°45'0 0.0
2015-Jun-26 09:30N 01°17' E 103°45'0 0.0
2015-Jun-26 08:30N 01°17' E 103°45'0 0.0
2015-Jun-26 07:30N 01°17' E 103°45'0 0.0
2015-Jun-26 06:30N 01°17' E 103°45'0 0.0
2015-Jun-26 05:30N 01°17' E 103°45'0 0.0
2015-Jun-26 04:33N 01°17' E 103°45'0 0.0
2015-Jun-26 03:27N 01°17' E 103°45'0 0.0
2015-Jun-26 02:30N 01°17' E 103°45'0 0.0
2015-Jun-26 01:33N 01°17' E 103°45'0 0.0
2015-Jun-26 00:30N 01°17' E 103°45'0 0.0
2015-Jun-25 23:33N 01°17' E 103°45'0 0.0
2015-Jun-25 22:30N 01°17' E 103°45'0 0.0
2015-Jun-25 21:30N 01°17' E 103°45'0 0.1
2015-Jun-25 20:33N 01°17' E 103°45'5 5.5
2015-Jun-25 19:33N 01°13' E 103°49'5 4.9
2015-Jun-25 18:33N 01°15' E 103°53'0 0.1
2015-Jun-25 17:30N 01°15' E 103°53'0 0.0
2015-Jun-25 16:33N 01°15' E 103°53'0 0.0
2015-Jun-25 15:33N 01°15' E 103°53'0 0.0
2015-Jun-25 14:33N 01°15' E 103°53'0 0.0
2015-Jun-25 13:24N 01°15' E 103°53'0 0.0
2015-Jun-25 12:18N 01°15' E 103°53'0 0.1
2015-Jun-25 11:21N 01°15' E 103°53'0 0.0
2015-Jun-25 10:27N 01°15' E 103°53'0 0.0
2015-Jun-25 08:33N 01°15' E 103°53'0 0.0
2015-Jun-25 06:33N 01°15' E 103°53'0 0.0
2015-Jun-25 03:33N 01°15' E 103°54'1 1.0
2015-Jun-25 02:34N 01°14' E 103°53'6 6.4
2015-Jun-25 01:33N 01°10' E 103°48'1110.5
2015-Jun-25 00:33N 01°03' E 103°40'  
Track history (hours):
 
Tides and Currents Weather Stations Pressure Air Temp Water Temp Dewpoint Dewpoint Depression Visibility Wind Speed Wind Dir Waves Ship Positions

Tubul

Last reported at 2015-Jun-26 19:33 UTC. Time now 2015-Jun-30 12:42 UTC.
Position N 01°16' E 104°14'.

Length 300 m; draft 12.1 m.

Type: Ship. MMSI: 636014647.

Date/timePositionNaut miles runAvg speedWind from/ knotsBaromVisibWave heightAir tempDewpointWater temp
2015-Jun-26 19:33N 01°16' E 104°14'1414.2
2015-Jun-26 18:33N 01°14' E 103°60'1111.4
2015-Jun-26 17:33N 01°12' E 103°48'5 5.2
2015-Jun-26 16:33N 01°17' E 103°45'0 0.0
2015-Jun-26 15:33N 01°17' E 103°45'0 0.0
2015-Jun-26 14:30N 01°17' E 103°45'0 0.0
2015-Jun-26 13:30N 01°17' E 103°45'0 0.0
2015-Jun-26 12:33N 01°17' E 103°45'0 0.0
2015-Jun-26 11:24N 01°17' E 103°45'0 0.0
2015-Jun-26 10:33N 01°17' E 103°45'0 0.0
2015-Jun-26 09:30N 01°17' E 103°45'0 0.0
2015-Jun-26 08:30N 01°17' E 103°45'0 0.0
2015-Jun-26 07:30N 01°17' E 103°45'0 0.0
2015-Jun-26 06:30N 01°17' E 103°45'0 0.0
2015-Jun-26 05:30N 01°17' E 103°45'0 0.0
2015-Jun-26 04:33N 01°17' E 103°45'0 0.0
2015-Jun-26 03:27N 01°17' E 103°45'0 0.0
2015-Jun-26 02:30N 01°17' E 103°45'0 0.0
2015-Jun-26 01:33N 01°17' E 103°45'0 0.0
2015-Jun-26 00:30N 01°17' E 103°45'0 0.0
2015-Jun-25 23:33N 01°17' E 103°45'0 0.0
2015-Jun-25 22:30N 01°17' E 103°45'0 0.0
2015-Jun-25 21:30N 01°17' E 103°45'0 0.1
2015-Jun-25 20:33N 01°17' E 103°45'5 5.5
2015-Jun-25 19:33N 01°13' E 103°49'5 4.9
2015-Jun-25 18:33N 01°15' E 103°53'0 0.1
2015-Jun-25 17:30N 01°15' E 103°53'0 0.0
2015-Jun-25 16:33N 01°15' E 103°53'0 0.0
2015-Jun-25 15:33N 01°15' E 103°53'0 0.0
2015-Jun-25 14:33N 01°15' E 103°53'0 0.0
2015-Jun-25 13:24N 01°15' E 103°53'0 0.0
2015-Jun-25 12:18N 01°15' E 103°53'0 0.1
2015-Jun-25 11:21N 01°15' E 103°53'0 0.0
2015-Jun-25 10:27N 01°15' E 103°53'0 0.0
2015-Jun-25 08:33N 01°15' E 103°53'0 0.0
2015-Jun-25 06:33N 01°15' E 103°53'0 0.0
2015-Jun-25 03:33N 01°15' E 103°54'1 1.0
2015-Jun-25 02:34N 01°14' E 103°53'6 6.4
2015-Jun-25 01:33N 01°10' E 103°48'1110.5
2015-Jun-25 00:33N 01°03' E 103°40'  

Dump ship's entire track history